Ridge, Maryland
Current Conditions -  °F | °C
As of 2:53 PM on Monday 24 Nov 2014 (Local Time) from KNUI Reporting Station
Clear Clear  
Wind Chill: 70°   Ceiling: Unl
Heat Index: 70°   Visibility: 10mi
Dew Point: 52°   Wind: 10mph
Humidity: 53%   Direction: 180°S
Pressure: 29.68"   Gusts: 24mph
Location:  38.12°N, 76.37°W
Report Text: KNUI 241953Z AUTO 18009G21KT 10SM CLR 21/11 A2968 RMK AO2 SLP049 T02110111
Loading
Personal Weather Stations






























Interactive Weather Map New forecast layout! Learn more

10-Day Weather Forecast

Advertisements
Track Severe Weather on mobile